createdAt,value
2017-10-22T00:01:19.661Z,23.97
2017-10-22T00:03:50.992Z,23.96
2017-10-22T00:06:22.691Z,23.96
2017-10-22T00:08:54.318Z,23.96
2017-10-22T00:11:24.717Z,23.96
2017-10-22T00:13:55.772Z,23.97
2017-10-22T00:16:26.332Z,23.97
2017-10-22T00:18:57.207Z,23.95
2017-10-22T00:21:28.714Z,23.93
2017-10-22T00:23:59.602Z,23.92
2017-10-22T00:26:29.622Z,23.90
2017-10-22T00:29:14.042Z,23.89
2017-10-22T00:31:49.710Z,23.89
2017-10-22T00:34:21.644Z,23.88
2017-10-22T00:36:54.204Z,23.85
2017-10-22T00:39:24.740Z,23.82
2017-10-22T00:41:55.543Z,23.54
2017-10-22T00:44:26.539Z,23.79
2017-10-22T00:46:58.090Z,23.77
2017-10-22T00:49:28.568Z,23.75
2017-10-22T00:51:58.566Z,23.61
2017-10-22T00:54:29.010Z,23.63
2017-10-22T00:56:59.389Z,23.74
2017-10-22T00:59:31.712Z,23.74
2017-10-22T01:02:02.208Z,23.74
2017-10-22T01:04:32.965Z,23.73
2017-10-22T01:07:03.251Z,23.75
2017-10-22T01:09:33.823Z,22.73
2017-10-22T01:12:04.117Z,23.74
2017-10-22T01:14:38.098Z,23.75
2017-10-22T01:17:09.456Z,23.74
2017-10-22T01:19:43.418Z,23.73
2017-10-22T01:22:13.880Z,23.71
2017-10-22T01:24:44.287Z,23.71
2017-10-22T01:27:15.305Z,23.69
2017-10-22T01:29:46.449Z,23.71
2017-10-22T01:32:16.980Z,23.71
2017-10-22T01:34:48.745Z,23.72
2017-10-22T01:37:19.455Z,23.71
2017-10-22T01:39:50.360Z,23.71
2017-10-22T01:42:20.565Z,23.71
2017-10-22T01:44:50.874Z,23.57
2017-10-22T01:47:21.226Z,23.67
2017-10-22T01:49:51.556Z,23.68
2017-10-22T01:52:26.756Z,23.67
2017-10-22T01:54:57.505Z,23.65
2017-10-22T01:57:29.677Z,23.65
2017-10-22T02:00:01.879Z,23.64
2017-10-22T02:02:36.808Z,23.64
2017-10-22T02:05:08.439Z,23.61
2017-10-22T02:07:41.194Z,23.59
2017-10-22T02:10:11.871Z,23.59
2017-10-22T02:12:42.995Z,23.57
2017-10-22T02:15:13.211Z,23.59
2017-10-22T02:17:43.747Z,23.58
2017-10-22T02:20:13.632Z,23.59
2017-10-22T02:22:44.016Z,23.59
2017-10-22T02:25:14.267Z,23.58
2017-10-22T02:27:46.332Z,23.57
2017-10-22T02:30:16.468Z,23.55
2017-10-22T02:32:46.811Z,23.54
2017-10-22T02:35:16.833Z,23.53
2017-10-22T02:37:47.548Z,23.51
2017-10-22T02:40:18.837Z,23.50
2017-10-22T02:42:49.474Z,23.48
2017-10-22T02:45:19.795Z,23.29
2017-10-22T02:47:50.325Z,23.43
2017-10-22T02:50:21.055Z,23.43
2017-10-22T02:52:51.147Z,23.42
2017-10-22T02:55:21.580Z,23.39
2017-10-22T02:57:51.849Z,23.40
2017-10-22T03:00:22.277Z,23.39
2017-10-22T03:02:52.940Z,23.35
2017-10-22T03:05:23.114Z,23.36
2017-10-22T03:07:53.697Z,23.31
2017-10-22T03:10:24.803Z,23.32
2017-10-22T03:12:55.861Z,23.30
2017-10-22T03:15:26.885Z,23.30
2017-10-22T03:17:57.185Z,23.29
2017-10-22T03:20:28.194Z,23.29
2017-10-22T03:22:59.817Z,23.12
2017-10-22T03:25:31.649Z,23.27
2017-10-22T03:28:01.611Z,23.27
2017-10-22T03:30:32.650Z,23.27
2017-10-22T03:33:03.877Z,23.23
2017-10-22T03:35:34.367Z,23.25
2017-10-22T03:38:11.593Z,23.25
2017-10-22T03:40:45.227Z,23.24
2017-10-22T03:43:16.221Z,23.20
2017-10-22T03:45:47.058Z,23.20
2017-10-22T03:48:20.989Z,23.03
2017-10-22T03:50:53.339Z,23.18
2017-10-22T03:53:25.275Z,23.17
2017-10-22T03:55:55.729Z,23.17
2017-10-22T03:58:26.075Z,23.15
2017-10-22T04:00:56.155Z,23.15
2017-10-22T04:03:26.495Z,23.15
2017-10-22T04:05:57.133Z,23.13
2017-10-22T04:08:27.665Z,23.13
2017-10-22T04:10:57.947Z,23.12
2017-10-22T04:13:28.352Z,23.13
2017-10-22T04:15:58.486Z,22.98
2017-10-22T04:18:28.804Z,23.13
2017-10-22T04:20:59.387Z,23.11
2017-10-22T04:23:29.433Z,23.10
2017-10-22T04:26:04.760Z,23.04
2017-10-22T04:28:37.495Z,23.07
2017-10-22T04:31:10.105Z,22.24
2017-10-22T04:33:46.901Z,22.03
2017-10-22T04:36:18.612Z,23.03
2017-10-22T04:38:51.415Z,23.02
2017-10-22T04:41:21.635Z,22.60
2017-10-22T04:43:52.107Z,23.01
2017-10-22T04:46:22.767Z,23.00
2017-10-22T04:48:54.423Z,22.99
2017-10-22T04:51:25.511Z,22.97
2017-10-22T04:53:56.037Z,22.94
2017-10-22T04:56:26.507Z,22.93
2017-10-22T04:58:57.284Z,22.91
2017-10-22T05:01:28.103Z,22.91
2017-10-22T05:03:58.590Z,22.90
2017-10-22T05:06:29.776Z,22.89
2017-10-22T05:09:01.650Z,22.88
2017-10-22T05:11:33.616Z,22.70
2017-10-22T05:14:04.431Z,22.86
2017-10-22T05:16:35.275Z,22.85
2017-10-22T05:19:07.996Z,22.85
2017-10-22T05:21:40.617Z,22.84
2017-10-22T05:24:11.219Z,22.84
2017-10-22T05:26:45.025Z,20.81
2017-10-22T05:29:15.176Z,22.80
2017-10-22T05:31:45.561Z,22.80
2017-10-22T05:34:17.067Z,22.66
2017-10-22T05:36:47.988Z,22.78
2017-10-22T05:39:18.139Z,22.78
2017-10-22T05:41:49.794Z,22.75
2017-10-22T05:44:20.148Z,22.78
2017-10-22T05:47:08.136Z,22.34
2017-10-22T05:49:39.835Z,22.76
2017-10-22T05:52:11.196Z,22.23
2017-10-22T05:54:42.571Z,22.77
2017-10-22T05:57:15.033Z,22.76
2017-10-22T05:59:45.304Z,22.77
2017-10-22T06:02:16.138Z,22.79
2017-10-22T06:04:47.366Z,22.79
2017-10-22T06:07:18.097Z,22.79
2017-10-22T06:09:48.490Z,22.79
2017-10-22T06:12:18.684Z,22.81
2017-10-22T06:14:50.928Z,22.82
2017-10-22T06:17:23.693Z,22.82
2017-10-22T06:19:58.406Z,22.83
2017-10-22T06:22:28.871Z,22.83
2017-10-22T06:24:59.414Z,22.85
2017-10-22T06:27:30.852Z,22.84
2017-10-22T06:30:02.375Z,22.85
2017-10-22T06:32:34.166Z,22.86
2017-10-22T06:35:06.224Z,22.72
2017-10-22T06:37:38.425Z,22.87
2017-10-22T06:40:09.017Z,22.86
2017-10-22T06:42:42.274Z,22.69
2017-10-22T06:45:14.905Z,22.84
2017-10-22T06:47:45.388Z,22.84
2017-10-22T06:50:16.216Z,22.72
2017-10-22T06:52:46.275Z,22.86
2017-10-22T06:55:17.219Z,22.87
2017-10-22T06:57:47.660Z,22.89
2017-10-22T07:00:18.231Z,22.91
2017-10-22T07:02:48.973Z,22.91
2017-10-22T07:05:18.913Z,22.89
2017-10-22T07:07:48.911Z,22.78
2017-10-22T07:10:19.586Z,22.93
2017-10-22T07:12:49.754Z,22.95
2017-10-22T07:15:19.551Z,22.86
2017-10-22T07:17:49.703Z,22.98
2017-10-22T07:20:22.011Z,22.99
2017-10-22T07:22:53.445Z,23.02
2017-10-22T07:25:25.370Z,23.06
2017-10-22T07:27:57.146Z,23.07
2017-10-22T07:30:27.851Z,23.09
2017-10-22T07:33:01.332Z,23.07
2017-10-22T07:35:31.969Z,23.11
2017-10-22T07:38:04.537Z,23.13
2017-10-22T07:40:35.679Z,23.15
2017-10-22T07:43:10.127Z,23.05
2017-10-22T07:45:42.600Z,21.95
2017-10-22T07:48:12.999Z,23.27
2017-10-22T07:50:45.792Z,23.33
2017-10-22T07:53:16.847Z,23.38
2017-10-22T07:55:47.361Z,23.43
2017-10-22T07:58:17.578Z,23.46
2017-10-22T08:00:48.903Z,23.48
2017-10-22T08:03:20.003Z,23.47
2017-10-22T08:05:50.431Z,23.50
2017-10-22T08:08:22.547Z,23.52
2017-10-22T08:10:52.617Z,23.41
2017-10-22T08:13:24.658Z,23.52
2017-10-22T08:15:59.965Z,23.51
2017-10-22T08:18:31.225Z,23.54
2017-10-22T08:21:01.147Z,23.56
2017-10-22T08:23:32.657Z,23.57
2017-10-22T08:26:04.331Z,23.46
2017-10-22T08:28:34.555Z,23.60
2017-10-22T08:31:06.758Z,23.48
2017-10-22T08:33:41.354Z,23.63
2017-10-22T08:36:11.736Z,23.65
2017-10-22T08:38:43.293Z,23.55
2017-10-22T08:41:15.011Z,23.69
2017-10-22T08:43:46.370Z,23.41
2017-10-22T08:46:17.345Z,23.72
2017-10-22T08:48:52.189Z,23.75
2017-10-22T08:51:22.910Z,23.75
2017-10-22T08:53:55.137Z,23.77
2017-10-22T08:56:26.250Z,23.78
2017-10-22T08:59:01.202Z,23.68
2017-10-22T09:01:33.253Z,23.84
2017-10-22T09:04:03.386Z,23.87
2017-10-22T09:06:39.074Z,23.87
2017-10-22T09:09:11.241Z,23.90
2017-10-22T09:11:42.719Z,23.71
2017-10-22T09:14:13.692Z,23.97
2017-10-22T09:16:49.911Z,24.00
2017-10-22T09:19:22.030Z,24.05
2017-10-22T09:21:53.274Z,24.10
2017-10-22T09:24:23.473Z,24.18
2017-10-22T09:26:59.564Z,24.28
2017-10-22T09:29:38.610Z,24.38
2017-10-22T09:32:14.294Z,24.44
2017-10-22T09:34:50.050Z,24.43
2017-10-22T09:37:22.929Z,24.30
2017-10-22T09:39:54.973Z,24.31
2017-10-22T09:42:31.020Z,24.44
2017-10-22T09:45:02.978Z,24.45
2017-10-22T09:47:34.454Z,24.47
2017-10-22T09:50:26.001Z,24.53
2017-10-22T09:53:04.358Z,24.36
2017-10-22T09:58:18.947Z,24.80
2017-10-22T10:00:52.823Z,24.92
2017-10-22T10:03:30.240Z,24.89
2017-10-22T10:06:09.884Z,24.98
2017-10-22T10:08:53.533Z,25.04
2017-10-22T10:11:32.284Z,25.25
2017-10-22T10:14:11.205Z,25.21
2017-10-22T10:16:43.875Z,25.21
2017-10-22T10:19:24.296Z,25.51
2017-10-22T10:22:09.842Z,25.50
2017-10-22T10:24:46.137Z,24.61
2017-10-22T10:27:19.666Z,25.74
2017-10-22T10:29:51.938Z,25.64
2017-10-22T10:32:30.738Z,25.80
2017-10-22T10:35:10.514Z,25.57
2017-10-22T10:37:44.844Z,25.80
2017-10-22T10:40:14.823Z,25.65
2017-10-22T10:42:54.136Z,25.65
2017-10-22T10:45:29.255Z,25.16
2017-10-22T10:48:04.140Z,25.56
2017-10-22T10:50:39.225Z,25.58
2017-10-22T10:53:10.320Z,25.51
2017-10-22T10:55:42.584Z,24.65
2017-10-22T10:58:15.074Z,25.44
2017-10-22T11:00:51.122Z,25.17
2017-10-22T11:03:26.583Z,25.38
2017-10-22T11:05:57.645Z,25.33
2017-10-22T11:08:36.573Z,25.29
2017-10-22T11:11:09.237Z,25.01
2017-10-22T11:16:30.573Z,24.99
2017-10-22T11:19:00.729Z,25.13
2017-10-22T11:21:44.111Z,25.27
2017-10-22T11:24:23.084Z,25.28
2017-10-22T11:26:54.891Z,25.14
2017-10-22T11:29:33.342Z,25.26
2017-10-22T11:32:05.295Z,25.26
2017-10-22T11:34:43.975Z,25.23
2017-10-22T11:37:17.020Z,25.20
2017-10-22T11:39:52.608Z,25.18
2017-10-22T11:42:24.231Z,25.02
2017-10-22T11:44:55.025Z,25.12
2017-10-22T11:47:28.743Z,25.09
2017-10-22T11:50:03.338Z,25.04
2017-10-22T11:52:37.585Z,24.62
2017-10-22T11:55:13.591Z,24.93
2017-10-22T11:57:47.577Z,24.87
2017-10-22T12:00:26.491Z,24.82
2017-10-22T12:02:57.403Z,24.77
2017-10-22T12:08:10.953Z,24.57
2017-10-22T12:10:47.599Z,23.16
2017-10-22T12:13:38.443Z,24.65
2017-10-22T12:18:52.795Z,24.63
2017-10-22T12:21:44.877Z,24.63
2017-10-22T12:24:19.654Z,24.49
2017-10-22T12:27:00.559Z,24.60
2017-10-22T12:30:09.187Z,24.59
2017-10-22T12:35:53.193Z,24.43
2017-10-22T12:38:30.824Z,24.40
2017-10-22T12:41:02.915Z,24.51
2017-10-22T12:43:34.073Z,24.49
2017-10-22T12:46:03.918Z,24.48
2017-10-22T12:48:37.548Z,24.47
2017-10-22T12:51:15.056Z,24.33
2017-10-22T12:53:47.381Z,24.32
2017-10-22T12:56:24.417Z,24.33
2017-10-22T12:58:57.004Z,24.34
2017-10-22T13:01:31.743Z,24.49
2017-10-22T13:04:04.919Z,24.25
2017-10-22T13:06:40.416Z,24.52
2017-10-22T13:09:12.498Z,24.42
2017-10-22T13:11:44.221Z,24.53
2017-10-22T13:14:20.547Z,24.52
2017-10-22T13:16:51.952Z,24.50
2017-10-22T13:19:27.034Z,24.48
2017-10-22T13:21:58.964Z,24.46
2017-10-22T13:24:30.640Z,24.43
2017-10-22T13:27:05.345Z,24.41
2017-10-22T13:29:40.221Z,24.39
2017-10-22T13:32:14.311Z,23.87
2017-10-22T13:34:45.685Z,23.97
2017-10-22T13:37:19.710Z,24.34
2017-10-22T13:39:51.870Z,24.33
2017-10-22T13:42:24.907Z,24.33
2017-10-22T13:44:58.720Z,24.32
2017-10-22T13:47:33.901Z,23.82
2017-10-22T13:50:18.346Z,24.32
2017-10-22T13:53:00.298Z,24.32
2017-10-22T13:55:36.417Z,24.32
2017-10-22T14:01:05.196Z,24.29
2017-10-22T14:03:49.683Z,24.29
2017-10-22T14:06:23.380Z,24.27
2017-10-22T14:09:03.225Z,24.03
2017-10-22T14:11:39.917Z,24.27
2017-10-22T14:14:12.436Z,24.25
2017-10-22T14:16:43.937Z,24.23
2017-10-22T14:19:16.300Z,24.20
2017-10-22T14:21:48.525Z,24.03
2017-10-22T14:24:20.780Z,24.13
2017-10-22T14:26:52.130Z,24.09
2017-10-22T14:29:28.510Z,24.05
2017-10-22T14:32:02.584Z,24.00
2017-10-22T14:34:36.153Z,23.98
2017-10-22T14:37:07.755Z,23.95
2017-10-22T14:39:41.024Z,23.93
2017-10-22T14:42:13.317Z,23.92
2017-10-22T14:44:46.581Z,23.90
2017-10-22T14:47:20.602Z,23.89
2017-10-22T14:49:56.830Z,23.50
2017-10-22T14:52:37.391Z,23.72
2017-10-22T14:55:19.842Z,23.83
2017-10-22T14:57:52.006Z,23.80
2017-10-22T15:00:23.868Z,23.77
2017-10-22T15:02:55.086Z,23.74
2017-10-22T15:05:28.410Z,23.59
2017-10-22T15:07:58.651Z,23.58
2017-10-22T15:10:29.180Z,23.55
2017-10-22T15:13:03.512Z,23.66
2017-10-22T15:15:45.019Z,23.36
2017-10-22T15:21:06.766Z,23.57
2017-10-22T15:23:39.691Z,23.42
2017-10-22T15:26:09.837Z,23.53
2017-10-22T15:28:42.313Z,23.51
2017-10-22T15:31:15.388Z,22.83
2017-10-22T15:33:47.643Z,23.46
2017-10-22T15:36:18.293Z,23.43
2017-10-22T15:38:48.879Z,23.39
2017-10-22T15:41:18.800Z,23.37
2017-10-22T15:43:50.429Z,22.97
2017-10-22T15:46:20.537Z,23.34
2017-10-22T15:48:51.828Z,23.33
2017-10-22T15:51:23.974Z,23.31
2017-10-22T15:53:56.404Z,23.30
2017-10-22T15:56:26.352Z,23.14
2017-10-22T15:58:58.150Z,23.28
2017-10-22T16:01:30.465Z,23.13
2017-10-22T16:04:04.859Z,23.25
2017-10-22T16:06:35.021Z,23.23
2017-10-22T16:09:05.568Z,23.22
2017-10-22T16:11:39.951Z,23.20
2017-10-22T16:14:10.536Z,23.05
2017-10-22T16:16:43.710Z,22.78
2017-10-22T16:19:13.651Z,23.13
2017-10-22T16:21:45.033Z,23.11
2017-10-22T16:24:16.861Z,22.95
2017-10-22T16:26:46.840Z,23.07
2017-10-22T16:29:16.690Z,23.05
2017-10-22T16:31:47.902Z,23.03
2017-10-22T16:34:18.221Z,22.99
2017-10-22T16:36:49.704Z,22.82
2017-10-22T16:39:21.471Z,22.94
2017-10-22T16:44:43.750Z,22.89
2017-10-22T16:47:15.713Z,22.86
2017-10-22T16:49:47.456Z,22.71
2017-10-22T16:52:19.421Z,22.31
2017-10-22T16:54:50.210Z,22.81
2017-10-22T16:57:22.955Z,22.67
2017-10-22T16:59:53.207Z,22.62
2017-10-22T17:02:24.329Z,22.60
2017-10-22T17:04:56.785Z,22.72
2017-10-22T17:07:27.776Z,22.71
2017-10-22T17:09:59.022Z,22.69
2017-10-22T17:12:43.126Z,22.06
2017-10-22T17:15:16.724Z,22.58
2017-10-22T17:17:48.281Z,22.70
2017-10-22T17:20:19.022Z,22.68
2017-10-22T17:22:54.981Z,22.39
2017-10-22T17:25:26.343Z,22.51
2017-10-22T17:27:56.525Z,22.62
2017-10-22T17:30:27.401Z,22.60
2017-10-22T17:32:57.451Z,22.60
2017-10-22T17:35:28.385Z,22.58
2017-10-22T17:37:58.219Z,22.58
2017-10-22T17:40:28.043Z,22.44
2017-10-22T17:43:21.857Z,22.12
2017-10-22T17:46:22.318Z,22.19
2017-10-22T17:49:02.411Z,22.48
2017-10-22T17:51:53.546Z,22.40
2017-10-22T17:54:47.614Z,22.37
2017-10-22T18:00:12.111Z,22.66
2017-10-22T18:02:42.102Z,22.59
2017-10-22T18:05:17.140Z,22.54
2017-10-22T18:07:47.943Z,22.51
2017-10-22T18:10:17.659Z,22.48
2017-10-22T18:12:50.192Z,22.31
2017-10-22T18:15:21.612Z,22.45
2017-10-22T18:17:52.354Z,22.43
2017-10-22T18:20:25.789Z,22.28
2017-10-22T18:22:57.272Z,22.14
2017-10-22T18:25:28.709Z,22.39
2017-10-22T18:28:00.126Z,22.38
2017-10-22T18:30:30.388Z,22.25
2017-10-22T18:33:05.324Z,22.37
2017-10-22T18:35:38.895Z,22.37
2017-10-22T18:38:12.545Z,22.09
2017-10-22T18:40:51.599Z,22.24
2017-10-22T18:43:24.106Z,22.25
2017-10-22T18:45:59.469Z,22.27
2017-10-22T18:49:03.527Z,21.93
2017-10-22T18:51:40.042Z,22.49
2017-10-22T18:54:13.001Z,22.33
2017-10-22T18:56:43.451Z,22.29
2017-10-22T18:59:14.855Z,22.14
2017-10-22T19:01:46.983Z,22.40
2017-10-22T19:04:22.047Z,22.13
2017-10-22T19:06:54.760Z,22.38
2017-10-22T19:09:32.591Z,22.24
2017-10-22T19:12:04.736Z,22.23
2017-10-22T19:14:39.497Z,22.36
2017-10-22T19:17:13.778Z,22.37
2017-10-22T19:19:46.946Z,22.37
2017-10-22T19:22:24.789Z,22.37
2017-10-22T19:25:17.269Z,22.23
2017-10-22T19:27:52.486Z,22.36
2017-10-22T19:30:25.528Z,22.34
2017-10-22T19:33:03.585Z,22.34
2017-10-22T19:35:36.785Z,22.20
2017-10-22T19:38:12.393Z,22.34
2017-10-22T19:40:47.111Z,21.70
2017-10-22T19:43:20.826Z,22.32
2017-10-22T19:45:52.412Z,22.31
2017-10-22T19:48:25.038Z,22.30
2017-10-22T19:50:57.306Z,22.28
2017-10-22T19:53:29.624Z,22.26
2017-10-22T19:56:03.204Z,22.25
2017-10-22T19:58:34.790Z,22.24
2017-10-22T20:01:07.681Z,22.24
2017-10-22T20:03:50.637Z,22.23
2017-10-22T20:06:23.555Z,22.23
2017-10-22T20:09:02.152Z,22.23
2017-10-22T20:14:34.188Z,22.24
2017-10-22T20:17:19.163Z,22.23
2017-10-22T20:19:51.820Z,22.10
2017-10-22T20:22:23.119Z,22.24
2017-10-22T20:24:54.985Z,22.25
2017-10-22T20:27:25.252Z,22.25
2017-10-22T20:29:55.128Z,22.12
2017-10-22T20:32:25.344Z,22.25
2017-10-22T20:35:00.362Z,22.26
2017-10-22T20:37:41.471Z,22.26
2017-10-22T20:40:21.488Z,22.25
2017-10-22T20:42:51.683Z,22.24
2017-10-22T20:45:23.241Z,22.07
2017-10-22T20:47:54.386Z,22.08
2017-10-22T20:50:24.834Z,22.09
2017-10-22T20:52:56.239Z,22.21
2017-10-22T20:55:26.455Z,22.22
2017-10-22T20:57:59.554Z,22.23
2017-10-22T21:00:34.301Z,22.23
2017-10-22T21:03:05.157Z,22.24
2017-10-22T21:05:38.797Z,22.10
2017-10-22T21:08:12.121Z,22.25
2017-10-22T21:10:44.912Z,22.25
2017-10-22T21:13:27.395Z,22.24
2017-10-22T21:16:12.026Z,22.24
2017-10-22T21:18:42.878Z,22.12
2017-10-22T21:21:14.001Z,22.24
2017-10-22T21:23:45.583Z,22.24
2017-10-22T21:26:16.430Z,22.23
2017-10-22T21:28:52.748Z,22.23
2017-10-22T21:31:23.960Z,22.24
2017-10-22T21:33:54.405Z,22.25
2017-10-22T21:36:25.232Z,22.28
2017-10-22T21:38:55.462Z,22.15
2017-10-22T21:41:27.957Z,22.03
2017-10-22T21:43:58.690Z,22.02
2017-10-22T21:46:29.839Z,22.29
2017-10-22T21:49:00.995Z,22.28
2017-10-22T21:51:33.581Z,22.13
2017-10-22T21:54:06.995Z,22.27
2017-10-22T21:56:39.640Z,22.14
2017-10-22T21:59:10.023Z,22.25
2017-10-22T22:01:45.615Z,22.11
2017-10-22T22:04:16.372Z,22.25
2017-10-22T22:06:48.065Z,22.25
2017-10-22T22:09:19.323Z,22.25
2017-10-22T22:11:49.672Z,22.26
2017-10-22T22:14:20.463Z,22.27
2017-10-22T22:16:50.489Z,22.13
2017-10-22T22:19:21.631Z,22.28
2017-10-22T22:21:52.077Z,22.28
2017-10-22T22:24:22.324Z,22.28
2017-10-22T22:26:54.286Z,22.14
2017-10-22T22:29:33.166Z,22.14
2017-10-22T22:32:05.177Z,22.28
2017-10-22T22:34:37.909Z,22.27
2017-10-22T22:37:09.434Z,22.28
2017-10-22T22:39:44.613Z,22.29
2017-10-22T22:42:16.022Z,22.27
2017-10-22T22:44:50.452Z,22.25
2017-10-22T22:47:21.244Z,22.25
2017-10-22T22:49:52.125Z,22.25
2017-10-22T22:52:22.508Z,22.26
2017-10-22T22:54:53.338Z,22.27
2017-10-22T22:57:25.786Z,22.27
2017-10-22T22:59:56.579Z,22.27
2017-10-22T23:02:29.579Z,21.75
2017-10-22T23:05:01.215Z,22.29
2017-10-22T23:07:32.174Z,22.28
2017-10-22T23:10:02.090Z,22.28
2017-10-22T23:12:32.206Z,22.29
2017-10-22T23:15:04.317Z,22.29
2017-10-22T23:17:36.747Z,22.28
2017-10-22T23:20:09.154Z,22.27
2017-10-22T23:22:41.202Z,22.26
2017-10-22T23:25:11.291Z,22.24
2017-10-22T23:27:43.138Z,21.99
2017-10-22T23:30:13.825Z,21.91
2017-10-22T23:32:44.555Z,22.21
2017-10-22T23:35:15.087Z,21.89
2017-10-22T23:37:46.384Z,22.20
2017-10-22T23:40:16.731Z,22.19
2017-10-22T23:42:48.961Z,22.20
2017-10-22T23:45:19.155Z,22.20
2017-10-22T23:47:49.763Z,22.20
2017-10-22T23:50:21.117Z,22.19
2017-10-22T23:52:52.195Z,22.19
2017-10-22T23:55:22.998Z,22.20
2017-10-22T23:57:53.839Z,21.74
